createdAt,value
2023-02-09T00:01:20.767Z,98404.81
2023-02-09T00:03:47.722Z,98401.53
2023-02-09T00:06:16.688Z,98401.59
2023-02-09T00:08:43.666Z,98399.03
2023-02-09T00:11:13.354Z,98391.13
2023-02-09T00:13:39.761Z,98384.91
2023-02-09T00:16:06.596Z,98385.53
2023-02-09T00:18:33.702Z,98390.09
2023-02-09T00:21:10.795Z,98369.91
2023-02-09T00:23:40.104Z,98394.63
2023-02-09T00:26:09.856Z,98385.13
2023-02-09T00:28:36.731Z,98393.06
2023-02-09T00:31:11.319Z,98384.28
2023-02-09T00:33:38.238Z,98389.09
2023-02-09T00:36:10.600Z,98377.47
2023-02-09T00:38:37.130Z,98382.06
2023-02-09T00:41:04.800Z,98376.75
2023-02-09T00:43:31.882Z,98381.50
2023-02-09T00:45:58.289Z,98374.91
2023-02-09T00:48:25.219Z,98366.94
2023-02-09T00:50:53.222Z,98359.50
2023-02-09T00:53:21.285Z,98368.72
2023-02-09T00:55:48.029Z,98373.72
2023-02-09T00:58:15.037Z,98364.69
2023-02-09T01:00:41.528Z,98372.81
2023-02-09T01:03:08.000Z,98360.91
2023-02-09T01:05:40.671Z,98354.63
2023-02-09T01:08:07.316Z,98349.16
2023-02-09T01:10:33.979Z,98344.97
2023-02-09T01:13:00.369Z,98351.06
2023-02-09T01:15:26.739Z,98329.59
2023-02-09T01:17:53.140Z,98336.13
2023-02-09T01:20:19.553Z,98330.13
2023-02-09T01:22:45.938Z,98323.50
2023-02-09T01:25:12.367Z,98327.72
2023-02-09T01:27:38.866Z,98318.69
2023-02-09T01:30:05.647Z,98329.84
2023-02-09T01:32:32.198Z,98316.41
2023-02-09T01:34:58.559Z,98325.66
2023-02-09T01:37:24.948Z,98319.78
2023-02-09T01:39:51.321Z,98322.94
2023-02-09T01:42:20.645Z,98318.34
2023-02-09T01:44:46.950Z,98318.22
2023-02-09T01:47:15.140Z,98317.59
2023-02-09T01:49:44.322Z,98316.47
2023-02-09T01:52:15.192Z,98316.59
2023-02-09T01:54:47.331Z,98308.81
2023-02-09T01:57:18.585Z,98301.78
2023-02-09T01:59:51.692Z,98294.53
2023-02-09T02:02:19.482Z,98299.09
2023-02-09T02:04:46.231Z,98297.19
2023-02-09T02:07:20.419Z,98297.53
2023-02-09T02:09:47.574Z,98291.41
2023-02-09T02:12:14.841Z,98291.84
2023-02-09T02:14:41.614Z,98290.25
2023-02-09T02:17:29.715Z,98283.72
2023-02-09T02:20:33.189Z,98276.03
2023-02-09T02:23:09.150Z,98281.16
2023-02-09T02:25:52.071Z,98280.66
2023-02-09T02:28:36.822Z,98274.53
2023-02-09T02:31:51.557Z,98271.16
2023-02-09T02:34:32.939Z,98272.53
2023-02-09T02:37:05.372Z,98267.16
2023-02-09T02:39:52.962Z,98273.09
2023-02-09T02:42:37.989Z,98272.00
2023-02-09T02:45:29.462Z,98257.88
2023-02-09T02:48:08.928Z,98274.78
2023-02-09T02:50:44.454Z,98257.00
2023-02-09T02:53:13.389Z,98257.88
2023-02-09T02:55:42.454Z,98251.22
2023-02-09T02:58:12.476Z,98265.59
2023-02-09T03:00:44.808Z,98272.63
2023-02-09T03:03:17.703Z,98264.69
2023-02-09T03:05:44.973Z,98264.59
2023-02-09T03:08:11.392Z,98261.56
2023-02-09T03:10:41.520Z,98263.78
2023-02-09T03:13:25.825Z,98258.16
2023-02-09T03:16:01.377Z,98261.66
2023-02-09T03:18:50.038Z,98267.53
2023-02-09T03:21:32.515Z,98258.41
2023-02-09T03:24:19.464Z,98261.44
2023-02-09T03:26:53.258Z,98259.28
2023-02-09T03:29:23.887Z,98260.97
2023-02-09T03:31:51.556Z,98260.28
2023-02-09T03:34:18.426Z,98256.41
2023-02-09T03:36:50.295Z,98247.00
2023-02-09T03:39:16.713Z,98240.72
2023-02-09T03:41:44.310Z,98242.09
2023-02-09T03:44:29.101Z,98248.69
2023-02-09T03:47:01.127Z,98246.63
2023-02-09T03:49:33.525Z,98252.84
2023-02-09T03:52:00.973Z,98236.34
2023-02-09T03:54:29.438Z,98241.97
2023-02-09T03:56:56.507Z,98256.94
2023-02-09T03:59:25.118Z,98252.53
2023-02-09T04:01:53.640Z,98243.28
2023-02-09T04:04:21.386Z,98219.16
2023-02-09T04:06:48.241Z,98223.56
2023-02-09T04:09:15.105Z,98222.84
2023-02-09T04:11:41.586Z,98232.97
2023-02-09T04:14:09.693Z,98220.81
2023-02-09T04:16:37.361Z,98233.44
2023-02-09T04:19:04.793Z,98221.75
2023-02-09T04:21:32.345Z,98232.47
2023-02-09T04:23:58.801Z,98200.75
2023-02-09T04:26:25.229Z,98244.06
2023-02-09T04:28:51.631Z,98226.09
2023-02-09T04:31:18.445Z,98257.47
2023-02-09T04:33:44.909Z,98236.06
2023-02-09T04:36:12.171Z,98238.13
2023-02-09T04:38:38.717Z,98250.28
2023-02-09T04:41:05.965Z,98250.88
2023-02-09T04:43:33.276Z,98252.22
2023-02-09T04:46:00.485Z,98247.81
2023-02-09T04:48:28.532Z,98256.78
2023-02-09T04:50:55.055Z,98245.25
2023-02-09T04:53:22.086Z,98266.31
2023-02-09T04:55:48.759Z,98261.06
2023-02-09T04:58:35.591Z,98267.81
2023-02-09T05:01:03.609Z,98273.94
2023-02-09T05:03:30.692Z,98271.47
2023-02-09T05:05:58.802Z,98278.22
2023-02-09T05:08:26.737Z,98265.78
2023-02-09T05:10:54.572Z,98277.22
2023-02-09T05:13:22.813Z,98277.22
2023-02-09T05:15:50.093Z,98276.16
2023-02-09T05:18:16.942Z,98278.81
2023-02-09T05:20:45.132Z,98277.63
2023-02-09T05:23:13.460Z,98298.06
2023-02-09T05:25:40.133Z,98283.84
2023-02-09T05:28:06.920Z,98296.56
2023-02-09T05:30:33.557Z,98291.44
2023-02-09T05:33:00.283Z,98280.88
2023-02-09T05:35:26.694Z,98288.22
2023-02-09T05:37:53.130Z,98283.19
2023-02-09T05:40:19.643Z,98298.56
2023-02-09T05:42:46.002Z,98296.06
2023-02-09T05:45:12.662Z,98282.03
2023-02-09T05:47:39.109Z,98287.50
2023-02-09T05:50:06.053Z,98283.81
2023-02-09T05:52:32.506Z,98272.41
2023-02-09T05:54:58.929Z,98281.03
2023-02-09T05:57:27.393Z,98285.13
2023-02-09T05:59:55.781Z,98286.59
2023-02-09T06:02:22.373Z,98280.44
2023-02-09T06:04:50.938Z,98261.50
2023-02-09T06:07:17.339Z,98282.47
2023-02-09T06:09:43.692Z,98287.88
2023-02-09T06:12:10.128Z,98285.94
2023-02-09T06:14:36.532Z,98295.75
2023-02-09T06:17:04.035Z,98313.00
2023-02-09T06:19:30.668Z,98286.91
2023-02-09T06:21:59.313Z,98313.88
2023-02-09T06:24:25.704Z,98311.06
2023-02-09T06:26:52.304Z,98318.53
2023-02-09T06:29:18.995Z,98329.63
2023-02-09T06:31:46.610Z,98331.53
2023-02-09T06:34:14.187Z,98326.09
2023-02-09T06:36:40.694Z,98331.38
2023-02-09T06:39:09.711Z,98340.59
2023-02-09T06:41:36.742Z,98345.41
2023-02-09T06:44:04.322Z,98343.09
2023-02-09T06:46:30.895Z,98349.25
2023-02-09T06:48:59.628Z,98353.66
2023-02-09T06:51:26.563Z,98352.94
2023-02-09T06:53:53.572Z,98351.16
2023-02-09T06:56:20.309Z,98359.38
2023-02-09T06:58:46.764Z,98368.16
2023-02-09T07:01:15.845Z,98358.97
2023-02-09T07:03:42.947Z,98367.50
2023-02-09T07:06:12.480Z,98365.31
2023-02-09T07:08:39.321Z,98359.19
2023-02-09T07:11:08.556Z,98357.16
2023-02-09T07:13:35.812Z,98357.03
2023-02-09T07:16:04.931Z,98352.19
2023-02-09T07:18:31.513Z,98348.09
2023-02-09T07:21:00.772Z,98355.59
2023-02-09T07:23:28.041Z,98351.25
2023-02-09T07:25:55.624Z,98355.94
2023-02-09T07:28:22.419Z,98354.19
2023-02-09T07:30:51.872Z,98357.72
2023-02-09T07:33:19.613Z,98351.16
2023-02-09T07:35:49.582Z,98344.56
2023-02-09T07:38:16.081Z,98344.28
2023-02-09T07:40:46.594Z,98339.75
2023-02-09T07:43:14.208Z,98332.47
2023-02-09T07:45:41.594Z,98335.94
2023-02-09T07:48:10.729Z,98328.88
2023-02-09T07:50:37.772Z,98320.13
2023-02-09T07:53:04.388Z,98312.09
2023-02-09T07:55:30.772Z,98306.47
2023-02-09T07:57:57.131Z,98313.38
2023-02-09T08:00:24.333Z,98317.56
2023-02-09T08:02:50.758Z,98305.34
2023-02-09T08:05:22.694Z,98317.72
2023-02-09T08:07:49.160Z,98315.53
2023-02-09T08:10:18.631Z,98314.25
2023-02-09T08:13:00.640Z,98309.25
2023-02-09T08:15:35.336Z,98311.97
2023-02-09T08:18:04.897Z,98298.13
2023-02-09T08:20:32.194Z,98306.69
2023-02-09T08:23:10.721Z,98314.25
2023-02-09T08:25:37.933Z,98302.28
2023-02-09T08:28:05.415Z,98317.34
2023-02-09T08:30:33.748Z,98316.72
2023-02-09T08:33:00.296Z,98314.16
2023-02-09T08:35:26.723Z,98314.41
2023-02-09T08:37:53.833Z,98310.47
2023-02-09T08:40:20.726Z,98306.13
2023-02-09T08:42:47.163Z,98306.91
2023-02-09T08:45:13.628Z,98314.44
2023-02-09T08:47:40.063Z,98304.22
2023-02-09T08:50:07.888Z,98325.13
2023-02-09T08:52:34.368Z,98324.25
2023-02-09T08:55:00.798Z,98317.91
2023-02-09T08:57:41.764Z,98320.94
2023-02-09T09:00:10.566Z,98327.34
2023-02-09T09:02:37.040Z,98320.06
2023-02-09T09:05:03.544Z,98330.16
2023-02-09T09:07:29.881Z,98324.72
2023-02-09T09:09:56.308Z,98337.53
2023-02-09T09:12:22.719Z,98339.16
2023-02-09T09:14:49.122Z,98346.31
2023-02-09T09:17:15.550Z,98350.06
2023-02-09T09:19:42.015Z,98340.44
2023-02-09T09:22:08.403Z,98337.56
2023-02-09T09:24:40.369Z,98342.56
2023-02-09T09:27:08.300Z,98339.91
2023-02-09T09:29:35.984Z,98343.19
2023-02-09T09:32:03.009Z,98339.41
2023-02-09T09:34:29.680Z,98340.13
2023-02-09T09:36:56.034Z,98327.94
2023-02-09T09:39:22.487Z,98324.13
2023-02-09T09:41:52.470Z,98331.00
2023-02-09T09:44:29.870Z,98323.34
2023-02-09T09:47:01.049Z,98327.63
2023-02-09T09:49:29.957Z,98331.44
2023-02-09T09:52:05.652Z,98321.56
2023-02-09T09:54:34.986Z,98318.16
2023-02-09T09:57:01.951Z,98325.97
2023-02-09T09:59:35.025Z,98315.16
2023-02-09T10:02:14.562Z,98316.66
2023-02-09T10:04:41.062Z,98320.56
2023-02-09T10:07:18.496Z,98307.78
2023-02-09T10:09:51.895Z,98324.19
2023-02-09T10:12:38.250Z,98328.38
2023-02-09T10:15:27.157Z,98326.41
2023-02-09T10:17:54.843Z,98323.56
2023-02-09T10:20:50.885Z,98326.97
2023-02-09T10:23:21.872Z,98321.59
2023-02-09T10:25:54.555Z,98323.75
2023-02-09T10:28:24.001Z,98321.69
2023-02-09T10:30:53.291Z,98324.88
2023-02-09T10:33:20.927Z,98314.38
2023-02-09T10:35:52.922Z,98321.28
2023-02-09T10:38:21.896Z,98291.59
2023-02-09T10:40:49.616Z,98274.09
2023-02-09T10:43:26.923Z,98292.47
2023-02-09T10:46:02.427Z,98288.59
2023-02-09T10:48:38.607Z,98293.81
2023-02-09T10:51:15.452Z,98295.41
2023-02-09T10:54:00.806Z,98305.38
2023-02-09T10:56:48.294Z,98300.16
2023-02-09T10:59:22.373Z,98290.72
2023-02-09T11:01:59.701Z,98291.13
2023-02-09T11:04:30.878Z,98280.09
2023-02-09T11:07:12.192Z,98280.38
2023-02-09T11:09:46.542Z,98266.59
2023-02-09T11:12:13.825Z,98275.22
2023-02-09T11:14:42.425Z,98269.63
2023-02-09T11:17:36.390Z,98273.19
2023-02-09T11:20:15.917Z,98265.56
2023-02-09T11:22:54.895Z,98260.81
2023-02-09T11:25:32.872Z,98263.69
2023-02-09T11:28:17.441Z,98258.19
2023-02-09T11:31:02.039Z,98260.19
2023-02-09T11:33:55.451Z,98254.25
2023-02-09T11:36:35.905Z,98245.13
2023-02-09T11:39:11.189Z,98241.97
2023-02-09T11:42:04.842Z,98241.81
2023-02-09T11:44:42.531Z,98237.91
2023-02-09T11:47:18.103Z,98240.34
2023-02-09T11:49:50.949Z,98231.84
2023-02-09T11:52:26.962Z,98230.97
2023-02-09T11:55:00.221Z,98236.50
2023-02-09T11:57:47.460Z,98230.69
2023-02-09T12:00:24.489Z,98225.00
2023-02-09T12:03:23.210Z,98228.59
2023-02-09T12:05:50.568Z,98228.44
2023-02-09T12:08:42.565Z,98220.53
2023-02-09T12:11:24.645Z,98224.41
2023-02-09T12:14:29.328Z,98231.16
2023-02-09T12:17:23.874Z,98231.22
2023-02-09T12:19:59.554Z,98224.41
2023-02-09T12:22:34.860Z,98240.63
2023-02-09T12:25:12.872Z,98228.22
2023-02-09T12:28:03.371Z,98218.19
2023-02-09T12:30:42.005Z,98214.25
2023-02-09T12:33:27.548Z,98220.72
2023-02-09T12:36:07.644Z,98205.53
2023-02-09T12:38:56.861Z,98210.22
2023-02-09T12:41:31.742Z,98209.63
2023-02-09T12:44:10.326Z,98212.50
2023-02-09T12:46:46.673Z,98200.31
2023-02-09T12:49:15.827Z,98202.00
2023-02-09T12:51:45.266Z,98202.19
2023-02-09T12:54:49.985Z,98197.41
2023-02-09T12:57:16.401Z,98186.41
2023-02-09T13:00:01.071Z,98183.78
2023-02-09T13:02:48.387Z,98192.34
2023-02-09T13:05:23.721Z,98195.72
2023-02-09T13:07:53.659Z,98195.53
2023-02-09T13:10:22.966Z,98194.25
2023-02-09T13:12:56.922Z,98192.16
2023-02-09T13:15:27.961Z,98188.59
2023-02-09T13:18:20.130Z,98200.06
2023-02-09T13:21:11.220Z,98201.72
2023-02-09T13:23:49.328Z,98185.31
2023-02-09T13:26:19.585Z,98203.88
2023-02-09T13:28:46.031Z,98197.44
2023-02-09T13:31:36.424Z,98193.28
2023-02-09T13:34:14.893Z,98194.66
2023-02-09T13:37:08.088Z,98188.81
2023-02-09T13:39:40.580Z,98189.09
2023-02-09T13:42:21.663Z,98189.25
2023-02-09T13:44:54.574Z,98184.56
2023-02-09T13:47:23.125Z,98187.69
2023-02-09T13:50:01.272Z,98181.66
2023-02-09T13:52:39.254Z,98183.00
2023-02-09T13:55:32.075Z,98178.31
2023-02-09T13:58:05.248Z,98170.84
2023-02-09T14:00:42.420Z,98175.06
2023-02-09T14:03:16.298Z,98177.06
2023-02-09T14:05:54.056Z,98184.97
2023-02-09T14:08:23.284Z,98173.00
2023-02-09T14:11:06.935Z,98171.59
2023-02-09T14:13:43.970Z,98164.78
2023-02-09T14:16:15.246Z,98174.84
2023-02-09T14:18:42.351Z,98169.91
2023-02-09T14:21:11.937Z,98167.06
2023-02-09T14:23:39.097Z,98167.78
2023-02-09T14:26:14.590Z,98163.97
2023-02-09T14:28:46.542Z,98161.75
2023-02-09T14:31:24.600Z,98170.53
2023-02-09T14:33:55.047Z,98169.63
2023-02-09T14:36:30.681Z,98172.69
2023-02-09T14:39:09.346Z,98172.94
2023-02-09T14:41:36.429Z,98173.66
2023-02-09T14:44:18.005Z,98180.63
2023-02-09T14:46:51.477Z,98180.22
2023-02-09T14:49:18.831Z,98182.28
2023-02-09T14:51:49.709Z,98166.69
2023-02-09T14:54:27.687Z,98169.69
2023-02-09T14:56:57.927Z,98167.00
2023-02-09T14:59:25.189Z,98163.41
2023-02-09T15:01:53.987Z,98165.25
2023-02-09T15:04:21.118Z,98158.72
2023-02-09T15:06:53.853Z,98158.19
2023-02-09T15:09:34.827Z,98153.84
2023-02-09T15:12:04.634Z,98155.88
2023-02-09T15:14:34.470Z,98165.00
2023-02-09T15:17:04.471Z,98168.75
2023-02-09T15:19:31.196Z,98167.19
2023-02-09T15:22:06.876Z,98166.16
2023-02-09T15:24:35.345Z,98175.94
2023-02-09T15:27:02.338Z,98178.75
2023-02-09T15:29:29.058Z,98180.81
2023-02-09T15:31:55.674Z,98184.13
2023-02-09T15:34:23.226Z,98182.81
2023-02-09T15:36:49.675Z,98186.19
2023-02-09T15:39:23.071Z,98192.16
2023-02-09T15:42:07.902Z,98186.38
2023-02-09T15:44:52.786Z,98191.84
2023-02-09T15:47:45.106Z,98206.50
2023-02-09T15:50:11.529Z,98217.41
2023-02-09T15:52:38.022Z,98218.47
2023-02-09T15:55:04.879Z,98218.78
2023-02-09T15:57:31.309Z,98236.63
2023-02-09T15:59:57.786Z,98232.66
2023-02-09T16:02:25.560Z,98230.81
2023-02-09T16:04:52.031Z,98243.94
2023-02-09T16:07:24.721Z,98245.22
2023-02-09T16:09:51.807Z,98247.72
2023-02-09T16:12:18.155Z,98248.22
2023-02-09T16:14:44.508Z,98248.41
2023-02-09T16:17:10.846Z,98249.06
2023-02-09T16:19:37.251Z,98256.44
2023-02-09T16:22:06.796Z,98252.53
2023-02-09T16:24:37.650Z,98247.84
2023-02-09T16:27:14.512Z,98248.63
2023-02-09T16:29:40.877Z,98246.97
2023-02-09T16:32:16.597Z,98254.72
2023-02-09T16:34:44.215Z,98258.16
2023-02-09T16:37:16.375Z,98259.94
2023-02-09T16:39:43.346Z,98267.09
2023-02-09T16:42:15.038Z,98275.78
2023-02-09T16:44:43.065Z,98268.88
2023-02-09T16:47:17.898Z,98274.03
2023-02-09T16:49:59.225Z,98267.28
2023-02-09T16:52:27.119Z,98274.56
2023-02-09T16:54:57.151Z,98284.78
2023-02-09T16:57:26.081Z,98284.78
2023-02-09T16:59:53.692Z,98288.81
2023-02-09T17:02:40.739Z,98295.84
2023-02-09T17:05:17.070Z,98288.75
2023-02-09T17:07:54.089Z,98288.94
2023-02-09T17:10:23.873Z,98290.28
2023-02-09T17:12:53.705Z,98289.06
2023-02-09T17:15:30.093Z,98285.16
2023-02-09T17:18:03.361Z,98285.34
2023-02-09T17:20:37.202Z,98280.00
2023-02-09T17:23:03.708Z,98287.00
2023-02-09T17:25:30.205Z,98293.47
2023-02-09T17:27:56.692Z,98290.94
2023-02-09T17:30:23.248Z,98281.44
2023-02-09T17:32:58.480Z,98275.59
2023-02-09T17:35:48.796Z,98269.38
2023-02-09T17:38:21.862Z,98276.59
2023-02-09T17:40:51.215Z,98284.38
2023-02-09T17:43:21.120Z,98272.88
2023-02-09T17:45:49.604Z,98276.25
2023-02-09T17:48:17.769Z,98273.06
2023-02-09T17:50:52.948Z,98289.03
2023-02-09T17:53:22.705Z,98295.13
2023-02-09T17:55:49.854Z,98292.06
2023-02-09T17:58:16.818Z,98287.34
2023-02-09T18:00:45.226Z,98296.53
2023-02-09T18:03:15.555Z,98293.91
2023-02-09T18:05:45.550Z,98294.44
2023-02-09T18:08:12.081Z,98311.34
2023-02-09T18:10:38.595Z,98318.00
2023-02-09T18:13:05.043Z,98310.13
2023-02-09T18:15:36.270Z,98319.16
2023-02-09T18:18:03.980Z,98308.38
2023-02-09T18:20:33.208Z,98308.38
2023-02-09T18:23:02.258Z,98287.13
2023-02-09T18:25:37.446Z,98288.94
2023-02-09T18:28:06.554Z,98251.63
2023-02-09T18:30:36.419Z,98283.38
2023-02-09T18:33:04.507Z,98293.84
2023-02-09T18:35:38.109Z,98278.28
2023-02-09T18:38:07.399Z,98300.84
2023-02-09T18:40:34.254Z,98304.16
2023-02-09T18:43:02.024Z,98311.00
2023-02-09T18:45:30.455Z,98317.19
2023-02-09T18:47:57.284Z,98316.31
2023-02-09T18:50:26.166Z,98310.19
2023-02-09T18:52:54.603Z,98314.75
2023-02-09T18:55:24.372Z,98327.16
2023-02-09T18:57:52.364Z,98352.41
2023-02-09T19:00:20.336Z,98336.69
2023-02-09T19:02:48.080Z,98352.84
2023-02-09T19:05:16.300Z,98359.00
2023-02-09T19:07:43.872Z,98360.06
2023-02-09T19:10:13.834Z,98357.97
2023-02-09T19:12:41.390Z,98362.97
2023-02-09T19:15:08.626Z,98349.44
2023-02-09T19:17:35.849Z,98368.75
2023-02-09T19:20:05.672Z,98361.59
2023-02-09T19:22:32.436Z,98371.75
2023-02-09T19:25:02.010Z,98374.28
2023-02-09T19:27:29.594Z,98373.00
2023-02-09T19:29:58.629Z,98376.50
2023-02-09T19:32:26.673Z,98373.78
2023-02-09T19:34:53.129Z,98367.22
2023-02-09T19:37:21.000Z,98362.97
2023-02-09T19:40:04.031Z,98367.97
2023-02-09T19:42:32.005Z,98369.63
2023-02-09T19:45:00.128Z,98351.31
2023-02-09T19:47:27.294Z,98353.81
2023-02-09T19:49:58.219Z,98363.75
2023-02-09T19:52:26.846Z,98366.13
2023-02-09T19:54:54.095Z,98381.28
2023-02-09T19:57:22.198Z,98382.81
2023-02-09T19:59:52.689Z,98385.94
2023-02-09T20:02:19.027Z,98375.03
2023-02-09T20:04:45.971Z,98382.91
2023-02-09T20:07:14.569Z,98380.91
2023-02-09T20:09:41.847Z,98389.81
2023-02-09T20:12:08.411Z,98391.31
2023-02-09T20:14:34.909Z,98389.09
2023-02-09T20:17:01.296Z,98391.44
2023-02-09T20:19:27.921Z,98382.31
2023-02-09T20:21:54.513Z,98383.66
2023-02-09T20:24:20.909Z,98380.41
2023-02-09T20:26:48.055Z,98379.44
2023-02-09T20:29:16.618Z,98381.66
2023-02-09T20:31:43.321Z,98387.56
2023-02-09T20:34:13.816Z,98390.06
2023-02-09T20:36:41.527Z,98393.34
2023-02-09T20:39:13.258Z,98388.44
2023-02-09T20:41:39.674Z,98373.66
2023-02-09T20:44:24.942Z,98392.81
2023-02-09T20:46:56.989Z,98385.81
2023-02-09T20:49:31.158Z,98375.25
2023-02-09T20:51:59.744Z,98396.34
2023-02-09T20:54:26.237Z,98349.31
2023-02-09T20:56:52.705Z,98381.03
2023-02-09T20:59:19.128Z,98389.78
2023-02-09T21:01:45.885Z,98371.72
2023-02-09T21:04:12.486Z,98370.84
2023-02-09T21:06:39.251Z,98347.41
2023-02-09T21:09:07.426Z,98364.34
2023-02-09T21:11:34.389Z,98384.38
2023-02-09T21:14:02.096Z,98374.72
2023-02-09T21:16:29.296Z,98364.19
2023-02-09T21:18:55.686Z,98369.66
2023-02-09T21:21:22.313Z,98377.97
2023-02-09T21:23:49.458Z,98362.13
2023-02-09T21:26:17.926Z,98361.03
2023-02-09T21:28:45.276Z,98374.94
2023-02-09T21:31:19.563Z,98386.47
2023-02-09T21:33:46.162Z,98379.69
2023-02-09T21:36:12.647Z,98392.88
2023-02-09T21:38:42.433Z,98380.34
2023-02-09T21:41:46.427Z,98382.25
2023-02-09T21:44:13.881Z,98378.56
2023-02-09T21:46:40.722Z,98387.97
2023-02-09T21:49:07.541Z,98401.47
2023-02-09T21:51:34.867Z,98402.19
2023-02-09T21:54:03.436Z,98401.56
2023-02-09T21:56:29.934Z,98400.16
2023-02-09T21:58:56.481Z,98399.41
2023-02-09T22:01:26.002Z,98404.69
2023-02-09T22:03:59.325Z,98403.25
2023-02-09T22:06:30.441Z,98395.97
2023-02-09T22:09:02.505Z,98411.47
2023-02-09T22:11:29.329Z,98411.56
2023-02-09T22:13:55.809Z,98410.56
2023-02-09T22:16:23.673Z,98409.81
2023-02-09T22:18:52.373Z,98413.19
2023-02-09T22:21:24.699Z,98399.66
2023-02-09T22:23:54.511Z,98399.06
2023-02-09T22:26:21.226Z,98398.78
2023-02-09T22:28:47.786Z,98399.53
2023-02-09T22:31:16.832Z,98413.34
2023-02-09T22:33:43.741Z,98417.47
2023-02-09T22:36:16.278Z,98406.91
2023-02-09T22:38:44.689Z,98417.66
2023-02-09T22:41:23.861Z,98426.94
2023-02-09T22:43:52.527Z,98426.94
2023-02-09T22:46:20.647Z,98424.78
2023-02-09T22:48:54.578Z,98433.28
2023-02-09T22:51:22.248Z,98435.00
2023-02-09T22:53:48.637Z,98426.41
2023-02-09T22:56:15.056Z,98438.22
2023-02-09T22:58:41.626Z,98442.56
2023-02-09T23:01:09.473Z,98450.00
2023-02-09T23:03:36.806Z,98450.03
2023-02-09T23:06:05.372Z,98452.13
2023-02-09T23:08:32.000Z,98457.00
2023-02-09T23:11:03.411Z,98450.44
2023-02-09T23:13:32.087Z,98449.56
2023-02-09T23:16:07.795Z,98462.06
2023-02-09T23:18:34.441Z,98456.91
2023-02-09T23:21:05.724Z,98456.59
2023-02-09T23:23:32.591Z,98457.66
2023-02-09T23:25:58.982Z,98459.16
2023-02-09T23:28:25.498Z,98459.81
2023-02-09T23:30:51.980Z,98466.84
2023-02-09T23:33:18.425Z,98457.00
2023-02-09T23:35:44.989Z,98472.84
2023-02-09T23:38:11.460Z,98484.72
2023-02-09T23:40:41.070Z,98483.41
2023-02-09T23:43:07.474Z,98486.97
2023-02-09T23:45:33.845Z,98466.25
2023-02-09T23:48:00.258Z,98483.75
2023-02-09T23:50:26.687Z,98484.06
2023-02-09T23:52:53.085Z,98492.63
2023-02-09T23:55:20.570Z,98489.56
2023-02-09T23:57:46.990Z,98490.41
